^^

Nearby METAR Reports

 

LIRH - Frosinone (it-Af, Italy
Distance from station: SO 5km
Dati ricevuti: 17/07/2019 08:55
Few Clouds
Few Clouds
 Vento da SSE
Vento: SSE 6 km/h
Temperatura: 22°C
P.to Rugiada: 15°C
Umidità: 65%
Barometro: 1013 hPa
Clouds: Few Clouds
Visibility: 10 km
Cloud details: Few Clouds 1219 m
2019/07/17 06:55 LIRH 170655Z 16003KT 9999 FEW040 22/15 Q1013
LIRL - Latina (it-Afb), Italy
Distance from station: OSO 40km
Dati ricevuti: 17/07/2019 08:55
Sereno
Sereno
 Vento da SO
Vento: SO 4 km/h
Temperatura: 20°C
P.to Rugiada: 15°C
Umidità: 73%
Barometro: 1012 hPa
Summary: Sereno
Visibility: greater than 10 km
2019/07/17 06:55 LIRL 170655Z 22002KT CAVOK 20/15 Q1012
 
LIRG - Guidonia (it-Afb, Italy
Distance from station: NO 63km
Dati ricevuti: 17/07/2019 08:55
Sereno
Sereno
 Vento da O
Vento: O 6 km/h
Temperatura: 22°C
P.to Rugiada: 14°C
Umidità: 61%
Barometro: 1013 hPa
Summary: Sereno
Visibility: greater than 10 km
2019/07/17 06:55 LIRG 170655Z 28003KT 230V340 CAVOK 22/14 Q1013
LIRA - Ciampino(It-Afb/, Italy
Distance from station: ONO 64km
Dati ricevuti: 17/07/2019 08:50
Sereno
Sereno
 Vento da NNE
Vento: NNE 9 km/h
Temperatura: 23°C
P.to Rugiada: 12°C
Umidità: 50%
Barometro: 1013 hPa
Summary: Sereno
Visibility: greater than 10 km
2019/07/17 06:50 LIRA 170650Z 03005KT CAVOK 23/12 Q1013
 
LIRU - Roma/Urbe (it-Af, Italy
Distance from station: ONO 76km
Dati ricevuti: 17/07/2019 08:50
Sereno
Sereno
 Vento da varies
Vento: varies 6 km/h
Temperatura: 23°C
P.to Rugiada: 14°C
Umidità: 57%
Barometro: 1013 hPa
Summary: Sereno
Visibility: greater than 10 km
2019/07/17 06:50 LIRU 170650Z VRB03KT CAVOK 23/14 Q1013
LIRE - Pratica Di Mare(, Italy
Distance from station: O 77km
Dati ricevuti: 17/07/2019 08:55
Sereno
Sereno
 Vento da NNE
Vento: NNE 11 km/h
Temperatura: 25°C
P.to Rugiada: 14°C
Umidità: 51%
Barometro: 1012 hPa
Summary: Sereno
Visibility: greater than 10 km
2019/07/17 06:55 LIRE 170655Z 03006KT CAVOK 25/14 Q1012 RMK SKC VIS MIN 9999 WIND THR13 05005KT WIND THR31 /////KT BLU
 
LIQN - Rieti, Italy
Distance from station: NNO 92km
Dati ricevuti: 16/07/2019 19:50
Non Attivo
Sereno
Sereno
 Vento da N
Vento: N 9 km/h
Temperatura: 26°C
P.to Rugiada: 8°C
Umidità: 32%
Barometro: 1011 hPa
Summary: Sereno
Visibility: greater than 10 km
2019/07/16 17:50 LIQN 161750Z 01005KT CAVOK 26/08 Q1011
LIRK - Terminillo, Italy
Distance from station: NNO 93km
Dati ricevuti: 17/07/2019 08:55

 Vento da SE
Vento: SE 22 km/h
Temperatura: 13°C
P.to Rugiada: -1°C
Umidità: 38%
Barometro: 1021 hPa
2019/07/17 06:55 LIRK 170655Z AUTO 13012KT //// 13/M01 Q1021
 
LIRF - Roma/Fiumicino, Italy
Distance from station: O 94km
Dati ricevuti: 17/07/2019 08:50
Sereno
Sereno
 Vento da ENE
Vento: ENE 17 km/h
Temperatura: 25°C
P.to Rugiada: 11°C
Umidità: 42%
Barometro: 1012 hPa
Summary: Sereno
Visibility: greater than 10 km
2019/07/17 06:50 LIRF 170650Z 07009KT CAVOK 25/11 Q1012 NOSIG
LIRM - Grazzanise (it-A, Italy
Distance from station: SE 94km
Dati ricevuti: 17/07/2019 08:55
Sereno
Sereno
 Vento da NE
Vento: NE 6 km/h
Temperatura: 24°C
P.to Rugiada: 14°C
Umidità: 54%
Barometro: 1012 hPa
Summary: Sereno
Visibility: greater than 10 km
2019/07/17 06:55 LIRM 170655Z 05003KT CAVOK 24/14 Q1012
 
LIBP - Pescara, Italy
Distance from station: NE 108km
Dati ricevuti: 17/07/2019 08:50
Sereno
Sereno
 Vento da OSO
Vento: OSO 13 km/h
Temperatura: 22°C
P.to Rugiada: 13°C
Umidità: 57%
Barometro: 1014 hPa
Summary: Sereno
Visibility: greater than 10 km
2019/07/17 06:50 LIBP 170650Z 24007KT CAVOK 22/13 Q1014
LIRN - Napoli/Capodichino, Italy
Distance from station: SE 120km
Dati ricevuti: 17/07/2019 08:50
Sereno
Sereno
 Vento da varies
Vento: varies 7 km/h
Temperatura: 24°C
P.to Rugiada: 10°C
Umidità: 41%
Barometro: 1013 hPa
Summary: Sereno
Visibility: greater than 10 km
2019/07/17 06:50 LIRN 170650Z VRB04KT CAVOK 24/10 Q1013 NOSIG
 
LIRV - Viterbo (it-Mil), Italy
Distance from station: NO 133km
Dati ricevuti: 17/07/2019 08:55
Sereno
Sereno
 Vento da varies
Vento: varies 0 km/h
Temperatura: 20°C
P.to Rugiada: 11°C
Umidità: 56%
Barometro: 1013 hPa
Summary: Sereno
Visibility: greater than 10 km
2019/07/17 06:55 LIRV 170655Z /////KT CAVOK 20/11 Q1013
LIQC - Capri, Italy
Distance from station: SSE 145km
Dati ricevuti: 17/07/2019 08:55
Sereno
Sereno
 Vento da calm
Vento: Calma
Temperatura: 23°C
P.to Rugiada: 11°C
Umidità: 47%
Barometro: 1012 hPa
Summary: Sereno
Visibility: greater than 10 km
2019/07/17 06:55 LIQC 170655Z 00000KT CAVOK 23/11 Q1012 RMK SKC QUK 1 QUL 0 VIS MAR 20 KM VIS MIN 9999
 
LIRT - Trevico, Italy
Distance from station: ESE 172km
Dati ricevuti: 16/07/2019 09:55
Non Attivo
Nebbia
Nebbia
 Vento da N
Vento: N 15 km/h
Temperatura: 12°C
P.to Rugiada: 10°C
Umidità: 88%
Barometro: 1011 hPa
Summary: Nebbia
Visibility: 0 km
2019/07/16 07:55 LIRT 160755Z 01008KT 0050 FG VV/// 12/10 Q1011 RMK MON INVIS VAL INVIS VIS MIN 0050
LIRZ - Perugia, Italy
Distance from station: NNO 172km
Dati ricevuti: 17/07/2019 08:50
Sereno
Sereno
 Vento da varies
Vento: varies 4 km/h
Temperatura: 19°C
P.to Rugiada: 12°C
Umidità: 64%
Barometro: 1014 hPa
Summary: Sereno
Visibility: greater than 10 km
2019/07/17 06:50 LIRZ 170650Z VRB02KT CAVOK 19/12 Q1014
 
LIRI - Pontecagnano (af, Italy
Distance from station: SE 177km
Dati ricevuti: 17/07/2019 09:00
Sereno
Sereno
 Vento da SSO
Vento: SSO 4 km/h
Temperatura: 24°C
P.to Rugiada: 13°C
Umidità: 50%
Barometro: 1013 hPa
Summary: Sereno
Visibility: greater than 10 km
2019/07/17 07:00 LIRI 170700Z 20002KT CAVOK 24/13 Q1013
LIBF - Foggia/Gino Lisa, Italy
Distance from station: E 183km
Dati ricevuti: 17/07/2019 08:50
Sereno
Sereno
 Vento da NO
Vento: NO 28 km/h
Temperatura: 24°C
P.to Rugiada: 15°C
Umidità: 57%
Barometro: 1012 hPa
Summary: Sereno
Visibility: greater than 10 km
2019/07/17 06:50 LIBF 170650Z 32015KT CAVOK 24/15 Q1012
 
LIQO - Monte Argentario, Italy
Distance from station: ONO 195km
Dati ricevuti: 15/07/2019 12:55
Non Attivo
Nebbia
Nebbia
 Vento da SE
Vento: SE 28 km/h
Temperatura: 22°C
P.to Rugiada: 22°C
Umidità: 100%
Barometro: 1008 hPa
Summary: Nebbia
Visibility: 0 km
2019/07/15 10:55 LIQO 151055Z 13015KT 0000 FG VV/// 22/22 Q1008 RMK VAL INVIS NC VIS MIN 0000
LIBA - Amendola (it-Afb, Italy
Distance from station: E 198km
Dati ricevuti: 17/07/2019 07:55
Non Attivo
Few Clouds
Few Clouds
 Vento da ONO
Vento: ONO 22 km/h
Temperatura: 21°C
P.to Rugiada: 17°C
Umidità: 78%
Barometro: 1011 hPa
Clouds: Few Clouds
Visibility: 10 km
Cloud details: Few Clouds 914 m
2019/07/17 05:55 LIBA 170555Z 29012KT 9999 FEW030 21/17 Q1011 RMK FEW VIS MIN 9999 WIND THR11 29012KT WIND THR29 /////KT BLU
 
LIBN - Lecce (it-Afb), Italy
Dati ricevuti: 17/07/2019 08:55
Sereno
Sereno
 Vento da varies
Vento: varies 0 km/h
Temperatura: 25°C
P.to Rugiada: 18°C
Umidità: 65%
Barometro: 1010 hPa
Summary: Sereno
Visibility: greater than 10 km
2019/07/17 06:55 LIBN 170655Z /////KT CAVOK 25/18 Q1010 RMK SKC VIS MIN 9999 WIND THR14 03012KT WIND THR32 02011KT BLU
LIPY - Ancona-Falconara, Italy
Dati ricevuti: 17/07/2019 08:50
Sereno
Sereno
 Vento da SO
Vento: SO 9 km/h
Temperatura: 22°C
P.to Rugiada: 15°C
Umidità: 65%
Barometro: 1014 hPa
Summary: Sereno
Visibility: greater than 10 km
2019/07/17 06:50 LIPY 170650Z 23005KT 190V250 CAVOK 22/15 Q1014
 
LICJ - Palermo-Punta Raisi, Italy
Dati ricevuti: 17/07/2019 08:50
Parz. nuvoloso
Parz. nuvoloso
 Vento da ONO
Vento: ONO 9 km/h
Temperatura: 25°C
P.to Rugiada: 20°C
Umidità: 74%
Barometro: 1013 hPa
Clouds: Parz. nuvoloso
Visibility: 10 km
Cloud details: Parz. nuvoloso 914 m
2019/07/17 06:50 LICJ 170650Z 30005KT 9999 SCT030 25/20 Q1013
LIEB - Capo Bellavista, Italy
Dati ricevuti: 17/07/2019 07:55
Non Attivo
Sereno
Sereno
 Vento da ONO
Vento: ONO 13 km/h
Temperatura: 22°C
P.to Rugiada: 9°C
Umidità: 44%
Barometro: 1013 hPa
Summary: Sereno
Visibility: greater than 10 km
2019/07/17 05:55 LIEB 170555Z 30007KT CAVOK 22/09 Q1013 RMK SKC QUK 1 QUL 0 VIS MAR 30 KM MON LIB VIS MIN 9999
 
LIEC - Capo Carbonara, Italy
Dati ricevuti: 17/07/2019 08:55
Sereno
Sereno
 Vento da OSO
Vento: OSO 15 km/h
Temperatura: 22°C
P.to Rugiada: 19°C
Umidità: 83%
Barometro: 1013 hPa
Summary: Sereno
Visibility: greater than 10 km
2019/07/17 06:55 LIEC 170655Z 24008KT CAVOK 22/19 Q1013 RMK FEW FEW200 QUK 2 QUL 0 VIS MAR 25 KM VIS MIN 9999
LIED - Cagliari-Decimomannu(It-A, Italy
Dati ricevuti: 17/07/2019 08:55
Sereno
Sereno
 Vento da ONO
Vento: ONO 11 km/h
Temperatura: 23°C
P.to Rugiada: 19°C
Umidità: 78%
Barometro: 1013 hPa
Summary: Sereno
Visibility: greater than 10 km
2019/07/17 06:55 LIED 170655Z 30006KT CAVOK 23/19 Q1013 RMK FEW FEW200 VIS MIN 9999 WIND THR35 32005KT WIND THR17 /////KT BLU
 
LIEE - Cagliari-Elmas(A, Italy
Dati ricevuti: 17/07/2019 08:50
Sereno
Sereno
 Vento da NNO
Vento: NNO 11 km/h
Temperatura: 23°C
P.to Rugiada: 17°C
Umidità: 69%
Barometro: 1014 hPa
Summary: Sereno
Visibility: greater than 10 km
2019/07/17 06:50 LIEE 170650Z 33006KT 290V350 CAVOK 23/17 Q1014
LIEO - Olbia-Costa Smeralda, Italy
Dati ricevuti: 17/07/2019 08:50
Sereno
Sereno
 Vento da OSO
Vento: OSO 17 km/h
Temperatura: 25°C
P.to Rugiada: 16°C
Umidità: 57%
Barometro: 1014 hPa
Summary: Sereno
Visibility: greater than 10 km
2019/07/17 06:50 LIEO 170650Z 24009KT CAVOK 25/16 Q1014
 
LIEA - Alghero, Italy
Dati ricevuti: 17/07/2019 08:50
Sereno
Sereno
 Vento da varies
Vento: varies 2 km/h
Temperatura: 23°C
P.to Rugiada: 17°C
Umidità: 69%
Barometro: 1015 hPa
Summary: Sereno
Visibility: greater than 10 km
2019/07/17 06:50 LIEA 170650Z VRB01KT CAVOK 23/17 Q1015
LICA - Catanzaro-Lamezia Terme, Italy
Dati ricevuti: 17/07/2019 07:50
Non Attivo
Sereno
Sereno
 Vento da varies
Vento: varies 4 km/h
Temperatura: 23°C
P.to Rugiada: 16°C
Umidità: 65%
Barometro: 1011 hPa
Summary: Sereno
Visibility: greater than 10 km
2019/07/17 05:50 LICA 170550Z VRB02KT CAVOK 23/16 Q1011
 
LIBQ - Cosenza-Monte Scuro, Italy
Dati ricevuti: 17/07/2019 01:55
Non Attivo
Nebbia
Nebbia
 Vento da NNE
Vento: NNE 48 km/h
Temperatura: 9°C
Temperatura del Vento: 4°C
P.to Rugiada: 9°C
Umidità: 100%
Barometro: 1014 hPa
Summary: Nebbia
Visibility: 0 km
2019/07/16 23:55 LIBQ 162355Z 03026KT 0000 FG VV/// 09/09 Q1014 RMK MON INVIS VAL INVIS VIS MIN 0000
LICR - Reggio Calabria, Italy
Dati ricevuti: 17/07/2019 08:50
Sereno
Sereno
 Vento da N
Vento: N 28 km/h
Temperatura: 26°C
P.to Rugiada: 15°C
Umidità: 51%
Barometro: 1011 hPa
Summary: Sereno
Visibility: greater than 10 km
2019/07/17 06:50 LICR 170650Z 35015KT CAVOK 26/15 Q1011
 
LIBV - Bari-Gioia Del Colle, Italy
Dati ricevuti: 17/07/2019 08:55
Few Clouds
Few Clouds
 Vento da ONO
Vento: ONO 20 km/h
Temperatura: 21°C
P.to Rugiada: 16°C
Umidità: 73%
Barometro: 1012 hPa
Clouds: Few Clouds
Visibility: 10 km
Cloud details: Few Clouds 1219 m
2019/07/17 06:55 LIBV 170655Z 29011KT 9999 FEW040 21/16 Q1012 RMK FEW VIS MIN 9999 WIND THR32 33012KT WIND THR14 33011KT BLU
LIBD - Bari-Palese Macchie, Italy
Dati ricevuti: 17/07/2019 08:50
Sereno
Sereno
 Vento da NNO
Vento: NNO 15 km/h
Temperatura: 24°C
P.to Rugiada: 17°C
Umidità: 65%
Barometro: 1012 hPa
Summary: Sereno
Visibility: greater than 10 km
2019/07/17 06:50 LIBD 170650Z 33008KT 290V360 CAVOK 24/17 Q1012
 
LIBR - Brindisi-Casale, Italy
Dati ricevuti: 17/07/2019 08:50
Sereno
Sereno
 Vento da NNE
Vento: NNE 31 km/h
Temperatura: 26°C
P.to Rugiada: 14°C
Umidità: 48%
Barometro: 1010 hPa
Summary: Sereno
Visibility: greater than 10 km
2019/07/17 06:50 LIBR 170650Z 03017KT CAVOK 26/14 Q1010
LIRT - Trevico, Italy
Dati ricevuti: 16/07/2019 09:55
Non Attivo
Nebbia
Nebbia
 Vento da N
Vento: N 15 km/h
Temperatura: 12°C
P.to Rugiada: 10°C
Umidità: 88%
Barometro: 1011 hPa
Summary: Nebbia
Visibility: 0 km
2019/07/16 07:55 LIRT 160755Z 01008KT 0050 FG VV/// 12/10 Q1011 RMK MON INVIS VAL INVIS VIS MIN 0050
 
LICB - Comiso, Italy
Dati ricevuti: 17/07/2019 08:50
Sereno
Sereno
 Vento da NE
Vento: NE 7 km/h
Temperatura: 25°C
P.to Rugiada: 14°C
Umidità: 51%
Barometro: 1013 hPa
Summary: Sereno
Visibility: greater than 10 km
2019/07/17 06:50 LICB 170650Z 05004KT 360V080 CAVOK 25/14 Q1013
LICL - Gela, Italy
Dati ricevuti: 17/07/2019 08:55
Sereno
Sereno
 Vento da varies
Vento: varies 11 km/h
Temperatura: 26°C
P.to Rugiada: 15°C
Umidità: 51%
Barometro: 1012 hPa
Summary: Sereno
Visibility: greater than 10 km
2019/07/17 06:55 LICL 170655Z VRB06KT CAVOK 26/15 Q1012 RMK SKC QUK 1 QUL 0 VIS MAR 12 KM VIS MIN 9999
 
LIBN - Lecce (it-Afb), Italy
Dati ricevuti: 17/07/2019 08:55
Sereno
Sereno
 Vento da varies
Vento: varies 0 km/h
Temperatura: 25°C
P.to Rugiada: 18°C
Umidità: 65%
Barometro: 1010 hPa
Summary: Sereno
Visibility: greater than 10 km
2019/07/17 06:55 LIBN 170655Z /////KT CAVOK 25/18 Q1010 RMK SKC VIS MIN 9999 WIND THR14 03012KT WIND THR32 02011KT BLU
LICJ - Palermo-Punta Raisi, Italy
Dati ricevuti: 17/07/2019 08:50
Parz. nuvoloso
Parz. nuvoloso
 Vento da ONO
Vento: ONO 9 km/h
Temperatura: 25°C
P.to Rugiada: 20°C
Umidità: 74%
Barometro: 1013 hPa
Clouds: Parz. nuvoloso
Visibility: 10 km
Cloud details: Parz. nuvoloso 914 m
2019/07/17 06:50 LICJ 170650Z 30005KT 9999 SCT030 25/20 Q1013
 
LICZ - Catania-Sigonella (nas), Italy
Dati ricevuti: 17/07/2019 08:55
Sereno
Sereno
 Vento da O
Vento: O 15 km/h
Temperatura: 25°C
P.to Rugiada: 14°C
Umidità: 51%
Barometro: 1011 hPa
Summary: Sereno
Visibility: greater than 10 km
2019/07/17 06:55 LICZ 170655Z 28008KT CAVOK 25/14 Q1011 RMK SKC VIS MIN 9999 WIND THR28 27007KT WIND THR10 30008KT A2987 BLU
LICC - Catania-Fontanarossa, Italy
Dati ricevuti: 17/07/2019 08:50
Sereno
Sereno
 Vento da SO
Vento: SO 11 km/h
Temperatura: 26°C
P.to Rugiada: 13°C
Umidità: 45%
Barometro: 1011 hPa
Summary: Sereno
Visibility: greater than 10 km
2019/07/17 06:50 LICC 170650Z 23006KT 190V260 CAVOK 26/13 Q1011
 
LICT - Trapani-Birgi (a, Italy
Dati ricevuti: 17/07/2019 08:55
Few Clouds
Few Clouds
 Vento da NNO
Vento: NNO 13 km/h
Temperatura: 26°C
P.to Rugiada: 23°C
Umidità: 84%
Barometro: 1013 hPa
Clouds: Few Clouds
Visibility: 10 km
Cloud details: Few Clouds 457 m
2019/07/17 06:55 LICT 170655Z 34007KT 9999 FEW015 26/23 Q1013
LICD - Agrigento-Lampedusa, Italy
Dati ricevuti: 17/07/2019 08:50
Sereno
Sereno
 Vento da N
Vento: N 26 km/h
Temperatura: 25°C
P.to Rugiada: 19°C
Umidità: 69%
Barometro: 1013 hPa
Summary: Sereno
Visibility: greater than 10 km
2019/07/17 06:50 LICD 170650Z 35014KT CAVOK 25/19 Q1013
 
LICG - Pantelleria(It-A, Italy
Dati ricevuti: 17/07/2019 08:50
Few Clouds
Few Clouds
 Vento da NNO
Vento: NNO 15 km/h
Temperatura: 24°C
P.to Rugiada: 20°C
Umidità: 78%
Barometro: 1015 hPa
Clouds: Few Clouds
Visibility: 10 km
Cloud details: Few Clouds 457 m
2019/07/17 06:50 LICG 170650Z 33008KT 9999 FEW015 24/20 Q1015
LIPX - Villafranca(Cv/M, Italy
Dati ricevuti: 17/07/2019 08:50
Sereno
Sereno
 Vento da varies
Vento: varies 4 km/h
Temperatura: 23°C
P.to Rugiada: 16°C
Umidità: 65%
Barometro: 1013 hPa
Summary: Sereno
Visibility: greater than 10 km
2019/07/17 06:50 LIPX 170650Z VRB02KT CAVOK 23/16 Q1013
 
LIPO - Brescia/Montichiari, Italy
Dati ricevuti: 17/07/2019 08:50
Sereno
Sereno
 Vento da SSO
Vento: SSO 6 km/h
Temperatura: 23°C
P.to Rugiada: 16°C
Umidità: 65%
Barometro: 1013 hPa
Summary: Sereno
Visibility: greater than 10 km
2019/07/17 06:50 LIPO 170650Z 20003KT CAVOK 23/16 Q1013
LIPL - Ghedi (it-Afb), Italy
Dati ricevuti: 17/07/2019 08:55
Sereno
Sereno
 Vento da SSO
Vento: SSO 6 km/h
Temperatura: 25°C
P.to Rugiada: 19°C
Umidità: 69%
Barometro: 1013 hPa
Summary: Sereno
Visibility: greater than 10 km
2019/07/17 06:55 LIPL 170655Z 20003KT CAVOK 25/19 Q1013 RMK SCT SCT200 VIS MIN 9999 WIND THR31 17002KT WIND THR13 17003KT BLU
 
LIMP - Parma, Italy
Dati ricevuti: 17/07/2019 08:50
Sereno
Sereno
 Vento da SSO
Vento: SSO 6 km/h
Temperatura: 22°C
P.to Rugiada: 16°C
Umidità: 69%
Barometro: 1014 hPa
Summary: Sereno
Visibility: greater than 10 km
2019/07/17 06:50 LIMP 170650Z 20003KT 170V230 CAVOK 22/16 Q1014
LIMS - Piacenza (it-Afb, Italy
Dati ricevuti: 17/07/2019 08:55
Sereno
Sereno
 Vento da O
Vento: O 11 km/h
Temperatura: 23°C
P.to Rugiada: 20°C
Umidità: 83%
Barometro: 1013 hPa
Summary: Sereno
Visibility: greater than 10 km
2019/07/17 06:55 LIMS 170655Z 27006KT CAVOK 23/20 Q1013
 
LIPF - Ferrara (aut), Italy
Dati ricevuti: 17/07/2019 08:55
Sereno
Sereno
 Vento da varies
Vento: varies 0 km/h
Temperatura: 23°C
P.to Rugiada: 16°C
Umidità: 65%
Barometro: 1013 hPa
Summary: Sereno
Visibility: greater than 10 km
2019/07/17 06:55 LIPF 170655Z /////KT CAVOK 23/16 Q1013
LIPE - Bologna/Borgo (a, Italy
Dati ricevuti: 17/07/2019 08:50
Sereno
Sereno
 Vento da SSO
Vento: SSO 9 km/h
Temperatura: 22°C
P.to Rugiada: 13°C
Umidità: 57%
Barometro: 1014 hPa
Summary: Sereno
Visibility: greater than 10 km
2019/07/17 06:50 LIPE 170650Z 21005KT CAVOK 22/13 Q1014
 
LIPU - Padova (civ/It-A, Italy
Dati ricevuti: 17/07/2019 08:00
Sereno
Sereno
 Vento da varies
Vento: varies 6 km/h
Temperatura: 22°C
P.to Rugiada: 16°C
Umidità: 69%
Barometro: 1015 hPa
Summary: Sereno
Visibility: greater than 10 km
2019/07/17 06:00 LIPU 170600Z VRB03KT CAVOK 22/16 Q1015
LIME - Bergamo/Orio Ser, Italy
Dati ricevuti: 17/07/2019 08:50
Sereno
Sereno
 Vento da varies
Vento: varies 4 km/h
Temperatura: 23°C
P.to Rugiada: 16°C
Umidità: 65%
Barometro: 1014 hPa
Summary: Sereno
Visibility: greater than 10 km
2019/07/17 06:50 LIME 170650Z VRB02KT CAVOK 23/16 Q1014 NOSIG
 
LIMT - Cisa Pass, Italy
Dati ricevuti: 13/04/2018 12:55
Non Attivo
Nebbia
Nebbia
 Vento da SSO
Vento: SSO 15 km/h
Temperatura: 6°C
Temperatura del Vento: 3°C
P.to Rugiada: 4°C
Umidità: 87%
Barometro: 1013 hPa
Summary: Nebbia
Visibility: 0 km
2018/04/13 10:55 LIMT 131055Z 20008KT 0000 FG VV/// 06/04 Q1013 RMK MON INVIS VAL INVIS VIS MIN 0000
LIVC - Cimone Mountain, Italy
Dati ricevuti: 16/07/2019 11:55
Non Attivo
Sereno
Sereno
 Vento da NE
Vento: NE 54 km/h, Raffica: 72 km/h
Temperatura: 7°C
Temperatura del Vento: 2°C
P.to Rugiada: 3°C
Umidità: 76%
Barometro: 1020 hPa
Summary: Sereno
Visibility: greater than 10 km
2019/07/16 09:55 LIVC 160955Z 04029G39KT CAVOK 07/03 Q1020 RMK SKC MON LIB VAL CLD SCT VIS MIN 9999
 
LIVP - Paganella Mounta, Italy
Dati ricevuti: 15/07/2019 18:55
Non Attivo
Nebbia
Nebbia
 Vento da S
Vento: S 7 km/h
Temperatura: 8°C
Temperatura del Vento: 7°C
P.to Rugiada: 6°C
Umidità: 87%
Barometro: 1018 hPa
Summary: Nebbia
Visibility: 0 km
2019/07/15 16:55 LIVP 151655Z 18004KT 0000 FG VV/// 08/06 Q1018 RMK MON INVIS VAL INVIS VIS MIN 0000
LIML - Milano/Linate, Italy
Dati ricevuti: 17/07/2019 08:50
Sereno
Sereno
 Vento da E
Vento: E 7 km/h
Temperatura: 23°C
P.to Rugiada: 15°C
Umidità: 61%
Barometro: 1014 hPa
Summary: Sereno
Visibility: greater than 10 km
2019/07/17 06:50 LIML 170650Z 09004KT 050V120 CAVOK 23/15 Q1014 NOSIG
 
LIPS - Istrana (it-Afb), Italy
Dati ricevuti: 17/07/2019 07:55
Non Attivo
Sereno
Sereno
 Vento da varies
Vento: varies 0 km/h
Temperatura: 23°C
P.to Rugiada: 19°C
Umidità: 78%
Barometro: 1013 hPa
Summary: Sereno
Visibility: greater than 10 km
2019/07/17 05:55 LIPS 170555Z /////KT CAVOK 23/19 Q1013 RMK FEW FEW200 VIS MIN 9999 WIND THR26 04004KT WIND THR08 08004KT BLU
LIPH - Treviso(Civ/It-A, Italy
Dati ricevuti: 17/07/2019 08:50
Sereno
Sereno
 Vento da NNE
Vento: NNE 6 km/h
Temperatura: 22°C
P.to Rugiada: 15°C
Umidità: 65%
Barometro: 1013 hPa
Summary: Sereno
Visibility: greater than 10 km
2019/07/17 06:50 LIPH 170650Z 02003KT 320V060 CAVOK 22/15 Q1013
 
LIPZ - Venezia/Tessera, Italy
Dati ricevuti: 17/07/2019 08:50
Sereno
Sereno
 Vento da NNO
Vento: NNO 7 km/h
Temperatura: 22°C
P.to Rugiada: 16°C
Umidità: 69%
Barometro: 1013 hPa
Summary: Sereno
Visibility: greater than 10 km
2019/07/17 06:50 LIPZ 170650Z 33004KT CAVOK 22/16 Q1013 NOSIG
LIQW - Sarzana/Luni, Italy
Dati ricevuti: 17/07/2019 08:55
Sereno
Sereno
 Vento da ONO
Vento: ONO 4 km/h
Temperatura: 21°C
P.to Rugiada: 16°C
Umidità: 73%
Barometro: 1013 hPa
Summary: Sereno
Visibility: greater than 10 km
2019/07/17 06:55 LIQW 170655Z 30002KT CAVOK 21/16 Q1013
 
LIVR - Rolle Pass, Italy
Dati ricevuti: 17/07/2019 07:55
Non Attivo
Sereno
Sereno
 Vento da varies
Vento: varies 4 km/h
Temperatura: 12°C
P.to Rugiada: 4°C
Umidità: 58%
Barometro: 1021 hPa
Summary: Sereno
Visibility: greater than 10 km
2019/07/17 05:55 LIVR 170555Z VRB02KT CAVOK 12/04 Q1021 RMK BKN BKN180 MON LIB VIS MIN 9999
LIPK - Forli (civ/It-Af, Italy
Dati ricevuti: 16/07/2019 17:50
Non Attivo
Sereno
Sereno
 Vento da varies
Vento: varies 6 km/h
Temperatura: 27°C
P.to Rugiada: 10°C
Umidità: 34%
Barometro: 1013 hPa
Summary: Sereno
Visibility: greater than 10 km
2019/07/16 15:50 LIPK 161550Z VRB03KT CAVOK 27/10 Q1013
 
LIMV - Giovi Pass, Italy
Dati ricevuti: 15/07/2019 14:55
Non Attivo
Pioviggine, Parz. nuvoloso
Pioviggine, Parz. nuvoloso
 Vento da varies
Vento: varies 0 km/h
Temperatura: 16°C
P.to Rugiada: 15°C
Umidità: 94%
Barometro: 1011 hPa
Summary: Pioviggine
Clouds: Parz. nuvoloso
Visibility: 9 km
Cloud details: Parz. nuvoloso 122 m
2019/07/15 12:55 LIMV 151255Z /////KT 9000 -RA SCT004 16/15 Q1011 RMK OVC SCT080 MON N INC S LIB CUF VAL FOSCHIA VIS MIN 5000N
LIPB - Bolzano(Civ/It-A, Italy
Dati ricevuti: 17/07/2019 08:50
Sereno
Sereno
 Vento da varies
Vento: varies 2 km/h
Temperatura: 21°C
P.to Rugiada: 13°C
Umidità: 60%
Barometro: 1015 hPa
Summary: Sereno
Visibility: greater than 10 km
2019/07/17 06:50 LIPB 170650Z VRB01KT CAVOK 21/13 Q1015
 
LIVD - Bolzano-Dobbiaco, Italy
Dati ricevuti: 17/07/2019 08:55
Sereno
Sereno
 Vento da varies
Vento: varies 0 km/h
Temperatura: 16°C
P.to Rugiada: 7°C
Umidità: 55%
Barometro: 1019 hPa
Summary: Sereno
Visibility: greater than 10 km
2019/07/17 06:55 LIVD 170655Z /////KT CAVOK 16/07 Q1019 RMK BKN BKN250 VIS MIN 9999
LIVE - Bolzano-Passo Resia, Italy
Dati ricevuti: 17/07/2019 08:55
Sereno
Sereno
 Vento da N
Vento: N 9 km/h
Temperatura: 11°C
P.to Rugiada: 7°C
Umidità: 77%
Barometro: 1018 hPa
Summary: Sereno
Visibility: greater than 10 km
2019/07/17 06:55 LIVE 170655Z 35005KT CAVOK 11/07 Q1018 RMK SCT SCT180 VIS MIN 9999
 
LIMH - Aosta-Pian Rosa (mtn T, Italy
Dati ricevuti: 17/07/2019 08:55
Few Clouds
Few Clouds
 Vento da varies
Vento: varies 0 km/h
Temperatura: 3°C
P.to Rugiada: -3°C
Umidità: 65%
Barometro: 1028 hPa
Clouds: Few Clouds
Visibility: 8 km
Cloud details: Few Clouds 0 m
2019/07/17 06:55 LIMH 170655Z /////KT 8000 FEW000 03/M03 Q1028 RMK FEW MON CLD SCT VAL FOSCHIA VIS MIN 8000
LIMZ - Cuneo/Levaldigi, Italy
Dati ricevuti: 17/07/2019 08:50
Sereno
Sereno
 Vento da varies
Vento: varies 2 km/h
Temperatura: 21°C
P.to Rugiada: 16°C
Umidità: 73%
Barometro: 1015 hPa
Summary: Sereno
Visibility: greater than 10 km
2019/07/17 06:50 LIMZ 170650Z VRB01KT CAVOK 21/16 Q1015
 
LIMK - Torino-Bric Della Croce, Italy
Dati ricevuti: 15/07/2019 16:55
Non Attivo
Pioviggine, Nebbia, Coperto
Pioviggine, Nebbia, Coperto
 Vento da NNO
Vento: NNO 22 km/h
Temperatura: 15°C
P.to Rugiada: 15°C
Umidità: 100%
Barometro: 1015 hPa
Summary: Pioviggine, Nebbia
Clouds: Coperto
Visibility: 0 km
Cloud details: Coperto 91 m
2019/07/15 14:55 LIMK 151455Z 33012KT 0300 -RA FG VV003 15/15 Q1015 RMK VAL INVIS VIS MIN 0300
LIMN - Novara-Cameri (it-Afb), Italy
Dati ricevuti: 17/07/2019 07:55
Non Attivo
Sereno
Sereno
 Vento da N
Vento: N 9 km/h
Temperatura: 20°C
P.to Rugiada: 16°C
Umidità: 78%
Barometro: 1013 hPa
Summary: Sereno
Visibility: greater than 10 km
2019/07/17 05:55 LIMN 170555Z 01005KT CAVOK 20/16 Q1013 RMK FEW FEW200 VIS MIN 9999 BLK BLU
 
LIPA - Pordenone-Aviano (it/Us-Af, Italy
Dati ricevuti: 17/07/2019 08:55
Sereno
Sereno
 Vento da E
Vento: E 11 km/h
Temperatura: 24°C
P.to Rugiada: 18°C
Umidità: 69%
Barometro: 1013 hPa
Summary: Sereno
Visibility: greater than 10 km
2019/07/17 06:55 LIPA 170655Z 08006KT CAVOK 24/18 Q1013 RMK FEW FEW200 VIS MIN 9999 WIND THR05 /////KT WIND THR23 /////KT A2993 BLU
LIPI - Udine-Rivolto (it-Afb), Italy
Dati ricevuti: 17/07/2019 08:55
Sereno
Sereno
 Vento da varies
Vento: varies 0 km/h
Temperatura: 24°C
P.to Rugiada: 13°C
Umidità: 50%
Barometro: 1013 hPa
Summary: Sereno
Visibility: greater than 10 km
2019/07/17 06:55 LIPI 170655Z /////KT CAVOK 24/13 Q1013 RMK FEW FEW200 VIS MIN 9999 WIND THR06 06005KT WIND THR24 06006KT BLU
 
LIVO - Udine-Tarvisio, Italy
Dati ricevuti: 17/07/2019 07:55
Non Attivo
Sereno
Sereno
 Vento da calm
Vento: Calma
Temperatura: 11°C
P.to Rugiada: 10°C
Umidità: 94%
Barometro: 1016 hPa
Summary: Sereno
Visibility: greater than 10 km
2019/07/17 05:55 LIVO 170555Z 00000KT CAVOK 11/10 Q1016 RMK FEW FEW160 VIS MIN 9999
LIPQ - Trieste-Ronchi Dei Legionari, Italy
Dati ricevuti: 17/07/2019 08:50
Sereno
Sereno
 Vento da E
Vento: E 6 km/h
Temperatura: 24°C
P.to Rugiada: 16°C
Umidità: 61%
Barometro: 1013 hPa
Summary: Sereno
Visibility: greater than 10 km
2019/07/17 06:50 LIPQ 170650Z 10003KT 070V130 CAVOK 24/16 Q1013
 
LIVT - Trieste, Italy
Dati ricevuti: 17/07/2019 08:55
Sereno
Sereno
 Vento da O
Vento: O 6 km/h
Temperatura: 24°C
P.to Rugiada: 19°C
Umidità: 74%
Barometro: 1013 hPa
Summary: Sereno
Visibility: greater than 10 km
2019/07/17 06:55 LIVT 170655Z 27003KT CAVOK 24/19 Q1013 RMK FEW FEW090 QUK 1 QUL 0 VIS MAR 20 KM VIS MIN 9999
LIRQ - Firenze/Peretola, Italy
Dati ricevuti: 17/07/2019 08:50
Sereno
Sereno
 Vento da varies
Vento: varies 2 km/h
Temperatura: 20°C
P.to Rugiada: 12°C
Umidità: 60%
Barometro: 1014 hPa
Summary: Sereno
Visibility: greater than 10 km
2019/07/17 06:50 LIRQ 170650Z VRB01KT CAVOK 20/12 Q1014
 
LIPK - Forli (civ/It-Af, Italy
Dati ricevuti: 16/07/2019 17:50
Non Attivo
Sereno
Sereno
 Vento da varies
Vento: varies 6 km/h
Temperatura: 27°C
P.to Rugiada: 10°C
Umidità: 34%
Barometro: 1013 hPa
Summary: Sereno
Visibility: greater than 10 km
2019/07/16 15:50 LIPK 161550Z VRB03KT CAVOK 27/10 Q1013
LIRS - Grosseto (it-Afb, Italy
Dati ricevuti: 17/07/2019 08:55
Sereno
Sereno
 Vento da E
Vento: E 7 km/h
Temperatura: 23°C
P.to Rugiada: 14°C
Umidità: 57%
Barometro: 1013 hPa
Summary: Sereno
Visibility: greater than 10 km
2019/07/17 06:55 LIRS 170655Z 09004KT CAVOK 23/14 Q1013
 
LIRP - Pisa (civ/It-Afb, Italy
Dati ricevuti: 17/07/2019 08:45
Sereno
Sereno
 Vento da SSE
Vento: SSE 4 km/h
Temperatura: 19°C
P.to Rugiada: 15°C
Umidità: 78%
Barometro: 1014 hPa
Summary: Sereno
Visibility: greater than 10 km
2019/07/17 06:45 LIRP 170645Z 16002KT CAVOK 19/15 Q1014 NOSIG
LIVF - Frontone, Italy
Dati ricevuti: 16/07/2019 08:55
Non Attivo
Parz. nuvoloso
Parz. nuvoloso
 Vento da ONO
Vento: ONO 13 km/h
Temperatura: 17°C
P.to Rugiada: 14°C
Umidità: 83%
Barometro: 1012 hPa
Clouds: Parz. nuvoloso
Visibility: 10 km
Cloud details: Parz. nuvoloso 457 m
Parz. nuvoloso 610 m
2019/07/16 06:55 LIVF 160655Z 30007KT 9999 SCT015 SCT020 17/14 Q1012 RMK BKN MON S W CIME INC NC VAL FOSCHIA VIS MIN 9999
 
LIPC - Cervia (it-Afb), Italy
Dati ricevuti: 17/07/2019 08:55
Sereno
Sereno
 Vento da OSO
Vento: OSO 7 km/h
Temperatura: 23°C
P.to Rugiada: 16°C
Umidità: 65%
Barometro: 1013 hPa
Summary: Sereno
Visibility: greater than 10 km
2019/07/17 06:55 LIPC 170655Z 25004KT CAVOK 23/16 Q1013
LIPR - Rimini (civ/It-A, Italy
Dati ricevuti: 17/07/2019 08:50
Sereno
Sereno
 Vento da varies
Vento: varies 2 km/h
Temperatura: 25°C
P.to Rugiada: 14°C
Umidità: 51%
Barometro: 1013 hPa
Summary: Sereno
Visibility: greater than 10 km
2019/07/17 06:50 LIPR 170650Z VRB01KT CAVOK 25/14 Q1013
 
LIRX - Monte Calamita, Italy
Dati ricevuti: 17/07/2019 08:55
Sereno
Sereno
 Vento da calm
Vento: Calma
Temperatura: 19°C
P.to Rugiada: 17°C
Umidità: 88%
Barometro: 1013 hPa
Summary: Sereno
Visibility: greater than 10 km
2019/07/17 06:55 LIRX 170655Z 00000KT CAVOK 19/17 Q1013 RMK SKC VIS MIN 9999 VIS MAR 30 KM
LIVM - Punta Marina/Rav, Italy
Dati ricevuti: 17/07/2019 08:55
Sereno
Sereno
 Vento da varies
Vento: varies 6 km/h
Temperatura: 17°C
P.to Rugiada: 12°C
Umidità: 73%
Barometro: 1013 hPa
Summary: Sereno
Visibility: greater than 10 km
2019/07/17 06:55 LIVM 170655Z VRB03KT CAVOK 17/12 Q1013 RMK SKC QUK 1 QUL 0 VIS MAR 22 KM VIS MIN 9999